createdAt,value
2022-09-09T00:00:23.824Z,38.67
2022-09-09T00:01:23.800Z,44.96
2022-09-09T00:02:23.920Z,46.25
2022-09-09T00:03:23.854Z,40.28
2022-09-09T00:04:23.760Z,45.28
2022-09-09T00:05:23.769Z,42.06
2022-09-09T00:06:23.747Z,42.22
2022-09-09T00:07:23.738Z,39.48
2022-09-09T00:08:23.739Z,40.12
2022-09-09T00:09:23.721Z,44.47
2022-09-09T00:10:23.719Z,38.51
2022-09-09T00:11:26.128Z,37.38
2022-09-09T00:12:24.673Z,36.25
2022-09-09T00:13:23.668Z,41.41
2022-09-09T00:14:23.663Z,44.79
2022-09-09T00:15:23.671Z,45.12
2022-09-09T00:16:23.713Z,36.42
2022-09-09T00:17:23.632Z,39.16
2022-09-09T00:18:23.621Z,43.02
2022-09-09T00:19:23.607Z,39.80
2022-09-09T00:20:23.617Z,42.38
2022-09-09T00:21:23.590Z,35.61
2022-09-09T00:22:23.580Z,36.09
2022-09-09T00:23:23.568Z,36.58
2022-09-09T00:24:23.562Z,37.06
2022-09-09T00:25:23.573Z,33.35
2022-09-09T00:26:23.541Z,35.61
2022-09-09T00:27:23.536Z,35.13
2022-09-09T00:28:23.521Z,28.36
2022-09-09T00:29:23.506Z,38.03
2022-09-09T00:30:23.541Z,44.63
2022-09-09T00:31:23.520Z,40.44
2022-09-09T00:32:23.487Z,38.19
2022-09-09T00:33:23.472Z,41.25
2022-09-09T00:34:23.470Z,37.38
2022-09-09T00:35:23.469Z,44.63
2022-09-09T00:36:23.441Z,38.03
2022-09-09T00:37:23.434Z,34.97
2022-09-09T00:38:23.422Z,42.06
2022-09-09T00:39:23.410Z,37.22
2022-09-09T00:40:23.408Z,42.54
2022-09-09T00:41:23.387Z,35.29
2022-09-09T00:42:23.385Z,36.09
2022-09-09T00:43:23.365Z,41.73
2022-09-09T00:44:23.352Z,45.60
2022-09-09T00:45:23.365Z,40.44
2022-09-09T00:46:23.417Z,39.32
2022-09-09T00:47:23.329Z,37.22
2022-09-09T00:48:23.309Z,37.22
2022-09-09T00:49:23.308Z,33.68
2022-09-09T00:50:23.311Z,45.60
2022-09-09T00:51:23.286Z,37.38
2022-09-09T00:52:23.267Z,36.74
2022-09-09T00:53:23.294Z,39.32
2022-09-09T00:54:23.254Z,39.80
2022-09-09T00:55:23.273Z,36.74
2022-09-09T00:56:23.231Z,40.12
2022-09-09T00:57:23.223Z,36.25
2022-09-09T00:58:23.208Z,38.35
2022-09-09T00:59:27.783Z,38.99
2022-09-09T01:00:25.217Z,42.86
2022-09-09T01:01:23.214Z,41.57
2022-09-09T01:02:23.214Z,40.77
2022-09-09T01:03:23.163Z,35.45
2022-09-09T01:04:23.142Z,36.74
2022-09-09T01:05:23.148Z,43.18
2022-09-09T01:06:23.131Z,37.38
2022-09-09T01:07:23.114Z,37.54
2022-09-09T01:08:23.114Z,39.48
2022-09-09T01:09:23.102Z,39.64
2022-09-09T01:10:23.107Z,37.06
2022-09-09T01:11:23.090Z,42.22
2022-09-09T01:12:23.066Z,37.87
2022-09-09T01:13:23.060Z,39.64
2022-09-09T01:14:23.062Z,36.90
2022-09-09T01:15:23.061Z,38.35
2022-09-09T01:16:23.060Z,38.67
2022-09-09T01:17:23.015Z,41.73
2022-09-09T01:18:23.013Z,41.73
2022-09-09T01:19:23.000Z,38.99
2022-09-09T01:20:23.006Z,43.83
2022-09-09T01:21:22.972Z,40.93
2022-09-09T01:22:22.964Z,47.37
2022-09-09T01:23:22.961Z,42.70
2022-09-09T01:24:22.945Z,40.93
2022-09-09T01:25:22.953Z,43.34
2022-09-09T01:26:22.927Z,45.60
2022-09-09T01:27:22.918Z,39.96
2022-09-09T01:28:22.922Z,41.89
2022-09-09T01:29:22.901Z,47.05
2022-09-09T01:30:22.909Z,42.06
2022-09-09T01:31:22.919Z,42.38
2022-09-09T01:32:22.868Z,43.34
2022-09-09T01:33:22.861Z,37.22
2022-09-09T01:34:22.840Z,38.51
2022-09-09T01:35:22.853Z,40.61
2022-09-09T01:36:22.830Z,35.13
2022-09-09T01:37:22.815Z,35.61
2022-09-09T01:38:22.813Z,44.47
2022-09-09T01:39:22.795Z,39.16
2022-09-09T01:40:22.809Z,40.61
2022-09-09T01:41:22.779Z,40.61
2022-09-09T01:42:22.773Z,42.22
2022-09-09T01:43:22.757Z,38.51
2022-09-09T01:44:22.756Z,41.73
2022-09-09T01:45:22.765Z,40.93
2022-09-09T01:46:22.771Z,45.44
2022-09-09T01:47:22.714Z,50.92
2022-09-09T01:48:22.710Z,45.92
2022-09-09T01:49:22.699Z,40.12
2022-09-09T01:50:22.707Z,38.19
2022-09-09T01:51:22.684Z,42.22
2022-09-09T01:52:22.678Z,37.06
2022-09-09T01:53:22.663Z,46.89
2022-09-09T01:54:22.642Z,36.90
2022-09-09T01:55:22.659Z,37.38
2022-09-09T01:56:22.628Z,37.87
2022-09-09T01:57:22.659Z,41.89
2022-09-09T01:58:22.608Z,39.16
2022-09-09T01:59:22.594Z,37.54
2022-09-09T02:00:22.606Z,35.29
2022-09-09T02:01:22.654Z,41.57
2022-09-09T02:02:22.620Z,35.77
2022-09-09T02:03:22.560Z,36.09
2022-09-09T02:04:22.542Z,43.67
2022-09-09T02:05:22.557Z,43.18
2022-09-09T02:06:22.528Z,45.60
2022-09-09T02:07:22.516Z,40.77
2022-09-09T02:08:22.516Z,40.93
2022-09-09T02:09:22.485Z,38.51
2022-09-09T02:10:22.507Z,39.64
2022-09-09T02:11:22.478Z,41.73
2022-09-09T02:12:22.476Z,40.44
2022-09-09T02:13:22.451Z,43.99
2022-09-09T02:14:22.440Z,52.05
2022-09-09T02:15:22.457Z,47.05
2022-09-09T02:16:22.531Z,39.80
2022-09-09T02:17:22.414Z,43.34
2022-09-09T02:18:22.407Z,46.41
2022-09-09T02:19:22.395Z,41.89
2022-09-09T02:20:22.409Z,41.41
2022-09-09T02:21:22.381Z,46.57
2022-09-09T02:22:22.362Z,43.67
2022-09-09T02:23:22.393Z,48.98
2022-09-09T02:24:22.348Z,45.12
2022-09-09T02:25:22.350Z,42.22
2022-09-09T02:26:22.319Z,39.96
2022-09-09T02:27:22.314Z,28.36
2022-09-09T02:28:22.303Z,43.34
2022-09-09T02:29:22.298Z,43.99
2022-09-09T02:30:22.394Z,43.18
2022-09-09T02:31:22.266Z,41.57
2022-09-09T02:32:22.257Z,37.71
2022-09-09T02:33:22.234Z,41.57
2022-09-09T02:34:22.233Z,48.34
2022-09-09T02:35:22.249Z,41.09
2022-09-09T02:36:22.220Z,39.48
2022-09-09T02:37:22.203Z,42.06
2022-09-09T02:38:22.196Z,42.70
2022-09-09T02:39:22.189Z,37.87
2022-09-09T02:40:22.201Z,36.42
2022-09-09T02:41:22.163Z,42.06
2022-09-09T02:42:22.157Z,38.51
2022-09-09T02:43:22.152Z,36.58
2022-09-09T02:44:22.139Z,39.32
2022-09-09T02:45:22.145Z,50.76
2022-09-09T02:46:22.210Z,40.61
2022-09-09T02:47:22.099Z,37.71
2022-09-09T02:48:47.997Z,35.93
2022-09-09T02:49:22.082Z,42.06
2022-09-09T02:50:22.091Z,43.51
2022-09-09T02:51:22.062Z,40.28
2022-09-09T02:52:22.045Z,41.89
2022-09-09T02:53:22.067Z,40.61
2022-09-09T02:54:22.029Z,42.70
2022-09-09T02:55:22.039Z,41.25
2022-09-09T02:56:22.006Z,42.86
2022-09-09T02:57:22.001Z,37.38
2022-09-09T02:58:21.992Z,39.16
2022-09-09T02:59:21.975Z,37.06
2022-09-09T03:00:21.978Z,42.06
2022-09-09T03:01:22.024Z,42.54
2022-09-09T03:02:22.112Z,40.61
2022-09-09T03:03:21.944Z,41.41
2022-09-09T03:04:21.932Z,36.90
2022-09-09T03:05:21.945Z,42.22
2022-09-09T03:06:21.911Z,44.79
2022-09-09T03:07:21.912Z,46.41
2022-09-09T03:08:21.894Z,41.57
2022-09-09T03:09:21.888Z,44.15
2022-09-09T03:10:21.897Z,46.41
2022-09-09T03:11:21.855Z,40.93
2022-09-09T03:12:21.857Z,39.48
2022-09-09T03:13:21.838Z,41.25
2022-09-09T03:14:21.833Z,39.64
2022-09-09T03:15:21.815Z,46.73
2022-09-09T03:16:22.945Z,49.47
2022-09-09T03:17:21.804Z,43.83
2022-09-09T03:18:21.790Z,47.70
2022-09-09T03:19:21.789Z,50.60
2022-09-09T03:20:21.762Z,44.96
2022-09-09T03:21:21.784Z,47.53
2022-09-09T03:22:21.754Z,37.06
2022-09-09T03:23:21.743Z,46.73
2022-09-09T03:24:21.737Z,51.72
2022-09-09T03:25:21.722Z,49.47
2022-09-09T03:26:21.734Z,44.79
2022-09-09T03:27:21.706Z,48.66
2022-09-09T03:28:21.690Z,41.09
2022-09-09T03:29:21.687Z,50.27
2022-09-09T03:30:21.684Z,37.22
2022-09-09T03:31:21.738Z,45.92
2022-09-09T03:32:21.651Z,41.09
2022-09-09T03:33:21.642Z,50.11
2022-09-09T03:34:21.636Z,47.21
2022-09-09T03:35:21.622Z,40.44
2022-09-09T03:36:21.624Z,44.96
2022-09-09T03:37:21.602Z,48.18
2022-09-09T03:38:21.597Z,49.63
2022-09-09T03:39:21.583Z,52.69
2022-09-09T03:40:21.570Z,43.83
2022-09-09T03:41:21.580Z,47.86
2022-09-09T03:42:21.556Z,50.76
2022-09-09T03:43:21.546Z,43.34
2022-09-09T03:44:21.531Z,50.11
2022-09-09T03:45:21.522Z,50.43
2022-09-09T03:46:21.531Z,42.86
2022-09-09T03:47:21.499Z,47.70
2022-09-09T03:48:21.475Z,52.37
2022-09-09T03:49:21.479Z,46.89
2022-09-09T03:50:21.469Z,47.37
2022-09-09T03:51:21.478Z,42.06
2022-09-09T03:52:23.739Z,40.93
2022-09-09T03:53:22.447Z,44.96
2022-09-09T03:54:21.424Z,50.76
2022-09-09T03:55:21.417Z,50.92
2022-09-09T03:56:21.421Z,45.76
2022-09-09T03:57:21.401Z,49.63
2022-09-09T03:58:21.386Z,41.89
2022-09-09T03:59:21.371Z,48.98
2022-09-09T04:00:21.365Z,48.66
2022-09-09T04:01:21.480Z,50.11
2022-09-09T04:02:21.399Z,48.82
2022-09-09T04:03:23.654Z,48.18
2022-09-09T04:04:22.321Z,50.43
2022-09-09T04:05:21.319Z,42.38
2022-09-09T04:06:21.327Z,48.34
2022-09-09T04:07:21.300Z,47.53
2022-09-09T04:08:21.274Z,44.96
2022-09-09T04:09:21.275Z,53.82
2022-09-09T04:10:21.264Z,50.92
2022-09-09T04:11:21.267Z,54.46
2022-09-09T04:12:21.230Z,48.66
2022-09-09T04:13:21.234Z,52.37
2022-09-09T04:14:21.217Z,48.82
2022-09-09T04:15:21.206Z,57.85
2022-09-09T04:16:21.294Z,45.76
2022-09-09T04:17:21.192Z,46.73
2022-09-09T04:18:21.179Z,60.10
2022-09-09T04:19:21.162Z,51.88
2022-09-09T04:20:21.155Z,50.76
2022-09-09T04:21:21.160Z,48.66
2022-09-09T04:22:21.139Z,62.20
2022-09-09T04:23:21.136Z,52.05
2022-09-09T04:24:21.111Z,49.47
2022-09-09T04:25:21.114Z,49.31
2022-09-09T04:26:21.201Z,54.79
2022-09-09T04:27:21.078Z,61.87
2022-09-09T04:28:21.071Z,52.53
2022-09-09T04:29:21.077Z,51.40
2022-09-09T04:30:21.062Z,50.27
2022-09-09T04:31:21.223Z,62.04
2022-09-09T04:32:21.077Z,45.12
2022-09-09T04:33:21.014Z,62.68
2022-09-09T04:34:22.010Z,62.84
2022-09-09T04:35:21.021Z,52.21
2022-09-09T04:36:21.010Z,62.52
2022-09-09T04:37:20.990Z,61.87
2022-09-09T04:38:20.969Z,62.04
2022-09-09T04:39:20.964Z,62.52
2022-09-09T04:40:20.948Z,62.52
2022-09-09T04:41:20.994Z,62.84
2022-09-09T04:42:20.936Z,63.81
2022-09-09T04:43:20.927Z,63.00
2022-09-09T04:44:20.910Z,49.95
2022-09-09T04:45:20.972Z,62.84
2022-09-09T04:46:20.915Z,53.98
2022-09-09T04:47:20.887Z,63.49
2022-09-09T04:48:20.879Z,62.68
2022-09-09T04:49:20.870Z,28.36
2022-09-09T04:50:20.851Z,48.98
2022-09-09T04:51:20.913Z,53.66
2022-09-09T04:52:20.825Z,63.49
2022-09-09T04:53:20.822Z,63.00
2022-09-09T04:54:20.811Z,51.56
2022-09-09T04:55:20.805Z,53.50
2022-09-09T04:56:20.801Z,60.26
2022-09-09T04:57:20.781Z,63.16
2022-09-09T04:58:20.770Z,63.16
2022-09-09T04:59:20.763Z,51.24
2022-09-09T05:00:20.743Z,63.00
2022-09-09T05:01:20.871Z,54.46
2022-09-09T05:02:20.807Z,62.68
2022-09-09T05:03:20.721Z,51.72
2022-09-09T05:04:20.705Z,63.00
2022-09-09T05:05:20.710Z,62.84
2022-09-09T05:06:20.753Z,62.04
2022-09-09T05:07:20.687Z,63.16
2022-09-09T05:08:20.665Z,64.45
2022-09-09T05:09:20.665Z,57.85
2022-09-09T05:10:20.651Z,62.68
2022-09-09T05:11:20.655Z,54.95
2022-09-09T05:12:20.668Z,52.05
2022-09-09T05:13:20.625Z,62.68
2022-09-09T05:14:20.606Z,51.24
2022-09-09T05:15:20.600Z,44.79
2022-09-09T05:16:20.682Z,53.66
2022-09-09T05:17:20.582Z,55.43
2022-09-09T05:18:20.574Z,53.98
2022-09-09T05:19:20.564Z,53.66
2022-09-09T05:20:20.552Z,54.30
2022-09-09T05:21:20.545Z,62.04
2022-09-09T05:22:20.530Z,62.68
2022-09-09T05:23:21.197Z,61.87
2022-09-09T05:24:20.515Z,55.43
2022-09-09T05:25:20.513Z,52.05
2022-09-09T05:26:20.508Z,48.34
2022-09-09T05:27:20.488Z,59.62
2022-09-09T05:28:20.484Z,55.11
2022-09-09T05:29:20.477Z,58.49
2022-09-09T05:30:20.455Z,62.84
2022-09-09T05:31:20.505Z,56.88
2022-09-09T05:32:20.441Z,60.59
2022-09-09T05:33:20.419Z,59.46
2022-09-09T05:34:20.431Z,62.04
2022-09-09T05:35:20.435Z,61.55
2022-09-09T05:36:21.451Z,53.33
2022-09-09T05:37:20.425Z,53.33
2022-09-09T05:38:20.370Z,62.04
2022-09-09T05:39:20.372Z,63.00
2022-09-09T05:40:20.410Z,59.14
2022-09-09T05:41:20.363Z,63.16
2022-09-09T05:42:20.338Z,61.87
2022-09-09T05:43:20.323Z,63.65
2022-09-09T05:44:20.320Z,62.20
2022-09-09T05:45:20.291Z,63.49
2022-09-09T05:46:20.403Z,63.81
2022-09-09T05:47:20.288Z,63.81
2022-09-09T05:48:20.279Z,64.78
2022-09-09T05:49:20.268Z,62.52
2022-09-09T05:50:20.285Z,64.78
2022-09-09T05:51:20.263Z,63.97
2022-09-09T05:52:20.238Z,63.81
2022-09-09T05:53:20.228Z,63.16
2022-09-09T05:54:20.223Z,64.29
2022-09-09T05:55:20.214Z,63.33
2022-09-09T05:56:20.225Z,59.94
2022-09-09T05:57:20.203Z,56.07
2022-09-09T05:58:20.180Z,62.52
2022-09-09T05:59:20.165Z,53.98
2022-09-09T06:00:20.184Z,54.46
2022-09-09T06:01:20.167Z,56.88
2022-09-09T06:02:20.239Z,62.84
2022-09-09T06:03:20.165Z,62.04
2022-09-09T06:04:20.115Z,61.39
2022-09-09T06:05:20.112Z,56.40
2022-09-09T06:06:20.111Z,60.42
2022-09-09T06:07:20.094Z,56.88
2022-09-09T06:08:20.078Z,61.07
2022-09-09T06:09:20.067Z,60.10
2022-09-09T06:10:20.056Z,60.75
2022-09-09T06:11:20.066Z,61.39
2022-09-09T06:12:20.038Z,58.97
2022-09-09T06:13:20.027Z,60.42
2022-09-09T06:14:20.005Z,59.14
2022-09-09T06:15:21.007Z,59.14
2022-09-09T06:16:20.039Z,60.59
2022-09-09T06:17:19.987Z,60.59
2022-09-09T06:18:19.983Z,61.07
2022-09-09T06:19:19.965Z,60.75
2022-09-09T06:20:19.951Z,61.23
2022-09-09T06:21:19.961Z,58.49
2022-09-09T06:22:19.933Z,60.59
2022-09-09T06:23:19.927Z,59.78
2022-09-09T06:24:19.911Z,58.97
2022-09-09T06:25:19.909Z,58.33
2022-09-09T06:26:19.942Z,59.62
2022-09-09T06:27:19.896Z,59.14
2022-09-09T06:28:19.920Z,61.23
2022-09-09T06:29:19.865Z,60.42
2022-09-09T06:30:19.872Z,58.49
2022-09-09T06:31:19.954Z,60.10
2022-09-09T06:32:19.820Z,60.91
2022-09-09T06:33:19.832Z,59.46
2022-09-09T06:34:19.806Z,58.33
2022-09-09T06:35:19.801Z,60.42
2022-09-09T06:36:19.813Z,59.30
2022-09-09T06:37:19.785Z,59.62
2022-09-09T06:38:19.780Z,60.59
2022-09-09T06:39:19.760Z,60.10
2022-09-09T06:40:19.833Z,59.46
2022-09-09T06:41:19.796Z,59.78
2022-09-09T06:42:19.736Z,59.62
2022-09-09T06:43:19.724Z,60.91
2022-09-09T06:44:19.707Z,59.46
2022-09-09T06:45:19.707Z,60.59
2022-09-09T06:46:19.749Z,60.91
2022-09-09T06:47:19.680Z,60.91
2022-09-09T06:48:19.671Z,58.97
2022-09-09T06:49:19.660Z,58.97
2022-09-09T06:50:19.652Z,58.01
2022-09-09T06:51:19.639Z,60.26
2022-09-09T06:52:19.649Z,58.81
2022-09-09T06:53:19.628Z,59.46
2022-09-09T06:54:19.615Z,58.81
2022-09-09T06:55:19.605Z,59.14
2022-09-09T06:56:19.590Z,58.49
2022-09-09T06:57:38.314Z,57.36
2022-09-09T06:58:21.600Z,58.97
2022-09-09T06:59:19.565Z,59.14
2022-09-09T07:00:19.551Z,61.71
2022-09-09T07:01:19.592Z,59.46
2022-09-09T07:02:19.607Z,59.30
2022-09-09T07:03:19.522Z,60.10
2022-09-09T07:04:19.510Z,59.78
2022-09-09T07:05:19.517Z,60.59
2022-09-09T07:06:20.193Z,61.07
2022-09-09T07:07:19.492Z,61.87
2022-09-09T07:08:19.471Z,60.59
2022-09-09T07:09:19.457Z,59.78
2022-09-09T07:10:19.514Z,60.42
2022-09-09T07:11:19.431Z,59.78
2022-09-09T07:12:19.481Z,58.33
2022-09-09T07:13:19.560Z,61.39
2022-09-09T07:14:19.411Z,60.10
2022-09-09T07:15:19.397Z,59.46
2022-09-09T07:16:19.463Z,58.49
2022-09-09T07:17:19.393Z,60.75
2022-09-09T07:18:19.372Z,58.81
2022-09-09T07:19:19.355Z,58.33
2022-09-09T07:20:19.385Z,61.07
2022-09-09T07:21:19.332Z,61.23
2022-09-09T07:22:19.346Z,60.26
2022-09-09T07:23:19.320Z,61.39
2022-09-09T07:24:19.292Z,59.14
2022-09-09T07:25:19.297Z,59.94
2022-09-09T07:26:19.279Z,59.62
2022-09-09T07:27:19.288Z,61.07
2022-09-09T07:28:19.262Z,60.26
2022-09-09T07:29:21.037Z,59.46
2022-09-09T07:30:25.516Z,58.97
2022-09-09T07:31:21.302Z,59.62
2022-09-09T07:32:19.220Z,58.49
2022-09-09T07:33:19.220Z,60.10
2022-09-09T07:34:19.199Z,60.42
2022-09-09T07:35:19.196Z,58.65
2022-09-09T07:36:19.185Z,60.26
2022-09-09T07:37:19.204Z,58.81
2022-09-09T07:38:19.168Z,59.62
2022-09-09T07:39:19.162Z,59.14
2022-09-09T07:40:19.236Z,60.75
2022-09-09T07:41:19.132Z,60.42
2022-09-09T07:42:19.141Z,60.26
2022-09-09T07:43:19.114Z,59.94
2022-09-09T07:44:19.106Z,60.59
2022-09-09T07:45:19.099Z,60.10
2022-09-09T07:46:19.154Z,60.91
2022-09-09T07:47:19.094Z,59.30
2022-09-09T07:48:19.057Z,60.26
2022-09-09T07:49:24.375Z,59.94
2022-09-09T07:50:21.125Z,60.42
2022-09-09T07:51:19.034Z,60.59
2022-09-09T07:52:20.238Z,59.94
2022-09-09T07:53:19.008Z,59.46
2022-09-09T07:54:19.082Z,60.10
2022-09-09T07:55:18.987Z,61.23
2022-09-09T07:56:18.983Z,59.78
2022-09-09T07:57:19.503Z,60.42
2022-09-09T07:58:20.014Z,59.94
2022-09-09T07:59:18.953Z,60.42
2022-09-09T08:00:18.929Z,60.42
2022-09-09T08:01:18.990Z,58.81
2022-09-09T08:02:18.950Z,58.01
2022-09-09T08:03:18.974Z,60.59
2022-09-09T08:04:18.898Z,61.07
2022-09-09T08:05:18.889Z,60.59
2022-09-09T08:06:19.027Z,58.49
2022-09-09T08:07:18.888Z,59.46
2022-09-09T08:08:18.857Z,59.62
2022-09-09T08:09:18.845Z,58.97
2022-09-09T08:10:18.840Z,59.62
2022-09-09T08:11:18.855Z,59.14
2022-09-09T08:12:19.830Z,59.62
2022-09-09T08:13:19.025Z,58.81
2022-09-09T08:14:18.793Z,59.30
2022-09-09T08:15:18.784Z,59.62
2022-09-09T08:16:18.798Z,60.42
2022-09-09T08:17:18.778Z,59.94
2022-09-09T08:18:18.756Z,59.62
2022-09-09T08:19:18.755Z,59.94
2022-09-09T08:20:18.756Z,60.59
2022-09-09T08:21:18.735Z,58.81
2022-09-09T08:22:18.735Z,60.26
2022-09-09T08:23:18.709Z,60.91
2022-09-09T08:24:18.690Z,61.07
2022-09-09T08:25:18.697Z,59.46
2022-09-09T08:26:18.679Z,58.81
2022-09-09T08:27:18.688Z,59.94
2022-09-09T08:28:18.669Z,58.65
2022-09-09T08:29:19.219Z,58.65
2022-09-09T08:30:18.714Z,61.07
2022-09-09T08:31:18.726Z,59.14
2022-09-09T08:32:18.634Z,61.07
2022-09-09T08:33:18.616Z,60.42
2022-09-09T08:34:18.607Z,59.14
2022-09-09T08:35:18.586Z,59.78
2022-09-09T08:36:18.567Z,60.10
2022-09-09T08:37:18.586Z,60.42
2022-09-09T08:38:18.557Z,58.49
2022-09-09T08:39:18.554Z,59.46
2022-09-09T08:40:18.585Z,60.10
2022-09-09T08:41:18.534Z,60.42
2022-09-09T08:42:18.534Z,61.39
2022-09-09T08:43:18.506Z,58.81
2022-09-09T08:44:19.489Z,58.49
2022-09-09T08:45:18.488Z,58.01
2022-09-09T08:46:18.518Z,57.04
2022-09-09T08:47:18.486Z,59.30
2022-09-09T08:48:38.570Z,58.65
2022-09-09T08:49:18.452Z,60.10
2022-09-09T08:50:18.457Z,58.33
2022-09-09T08:51:18.419Z,58.33
2022-09-09T08:52:18.430Z,59.78
2022-09-09T08:53:18.417Z,59.30
2022-09-09T08:54:30.186Z,59.14
2022-09-09T08:55:20.388Z,58.81
2022-09-09T08:56:18.369Z,59.14
2022-09-09T08:57:18.383Z,60.10
2022-09-09T08:58:18.360Z,59.94
2022-09-09T08:59:18.343Z,59.94
2022-09-09T09:00:18.332Z,60.10
2022-09-09T09:01:18.366Z,59.78
2022-09-09T09:02:19.328Z,60.26
2022-09-09T09:03:18.295Z,60.91
2022-09-09T09:04:18.345Z,59.94
2022-09-09T09:05:18.300Z,58.81
2022-09-09T09:06:18.268Z,61.23
2022-09-09T09:07:18.274Z,59.94
2022-09-09T09:08:18.253Z,60.75
2022-09-09T09:09:18.241Z,59.30
2022-09-09T09:10:39.948Z,58.33
2022-09-09T09:11:20.219Z,59.78
2022-09-09T09:12:18.227Z,59.94
2022-09-09T09:13:18.208Z,59.14
2022-09-09T09:14:18.258Z,58.33
2022-09-09T09:15:18.175Z,58.17
2022-09-09T09:16:18.235Z,60.10
2022-09-09T09:17:18.176Z,60.26
2022-09-09T09:18:18.156Z,58.97
2022-09-09T09:19:18.147Z,58.97
2022-09-09T09:20:18.123Z,58.97
2022-09-09T09:21:18.125Z,57.69
2022-09-09T09:22:18.125Z,58.49
2022-09-09T09:23:18.091Z,58.17
2022-09-09T09:24:21.203Z,59.14
2022-09-09T09:25:19.074Z,58.33
2022-09-09T09:26:18.071Z,57.85
2022-09-09T09:27:18.079Z,58.65
2022-09-09T09:28:18.052Z,59.14
2022-09-09T09:29:18.038Z,58.49
2022-09-09T09:30:25.599Z,59.46
2022-09-09T09:31:20.038Z,59.62
2022-09-09T09:32:18.038Z,59.46
2022-09-09T09:33:18.007Z,58.81
2022-09-09T09:34:17.995Z,60.75
2022-09-09T09:35:17.981Z,58.97
2022-09-09T09:36:17.971Z,58.97
2022-09-09T09:37:17.985Z,58.81
2022-09-09T09:40:19.935Z,57.85
2022-09-09T09:41:17.928Z,58.81
2022-09-09T09:42:20.298Z,59.78
2022-09-09T09:43:18.909Z,60.91
2022-09-09T09:44:17.884Z,59.14
2022-09-09T09:45:17.880Z,58.65
2022-09-09T09:46:18.399Z,57.69
2022-09-09T09:47:18.879Z,57.20
2022-09-09T09:48:17.856Z,58.81
2022-09-09T09:49:17.861Z,58.49
2022-09-09T09:50:17.829Z,59.46
2022-09-09T09:51:17.829Z,57.69
2022-09-09T09:52:17.814Z,58.97
2022-09-09T09:53:17.798Z,59.78
2022-09-09T09:54:17.790Z,57.85
2022-09-09T09:55:17.781Z,58.33
2022-09-09T09:56:17.770Z,56.40
2022-09-09T09:57:17.774Z,57.04
2022-09-09T09:58:18.646Z,58.17
2022-09-09T09:59:23.765Z,58.33
2022-09-09T10:00:18.774Z,57.69
2022-09-09T10:01:17.742Z,57.69
2022-09-09T10:02:17.731Z,58.97
2022-09-09T10:03:17.703Z,58.33
2022-09-09T10:04:17.717Z,58.17
2022-09-09T10:05:17.680Z,58.49
2022-09-09T10:06:17.678Z,57.69
2022-09-09T10:07:17.683Z,57.69
2022-09-09T10:08:17.671Z,56.72
2022-09-09T10:09:17.669Z,57.52
2022-09-09T10:10:17.639Z,58.65
2022-09-09T10:11:17.630Z,58.17
2022-09-09T10:12:17.631Z,57.52
2022-09-09T10:13:17.623Z,58.17
2022-09-09T10:14:17.601Z,58.01
2022-09-09T10:15:17.595Z,57.04
2022-09-09T10:16:17.617Z,56.72
2022-09-09T10:17:17.584Z,57.20
2022-09-09T10:18:17.553Z,57.85
2022-09-09T10:19:17.547Z,57.69
2022-09-09T10:20:17.538Z,57.52
2022-09-09T10:21:17.531Z,57.04
2022-09-09T10:22:17.547Z,57.20
2022-09-09T10:23:17.556Z,57.52
2022-09-09T10:24:17.509Z,58.49
2022-09-09T10:25:17.502Z,58.33
2022-09-09T10:26:17.486Z,57.52
2022-09-09T10:27:17.490Z,56.88
2022-09-09T10:28:17.459Z,56.88
2022-09-09T10:29:17.500Z,58.65
2022-09-09T10:30:17.454Z,58.49
2022-09-09T10:31:17.502Z,57.52
2022-09-09T10:32:17.458Z,56.24
2022-09-09T10:33:17.418Z,58.17
2022-09-09T10:34:17.409Z,58.65
2022-09-09T10:35:17.396Z,58.17
2022-09-09T10:36:17.397Z,57.85
2022-09-09T10:37:17.397Z,58.97
2022-09-09T10:38:17.365Z,57.52
2022-09-09T10:39:17.369Z,58.01
2022-09-09T10:40:17.423Z,57.20
2022-09-09T10:41:17.337Z,58.49
2022-09-09T10:42:17.386Z,57.36
2022-09-09T10:43:17.314Z,57.20
2022-09-09T10:44:17.299Z,58.17
2022-09-09T10:45:17.295Z,57.69
2022-09-09T10:46:17.351Z,57.69
2022-09-09T10:47:17.291Z,57.04
2022-09-09T10:48:17.270Z,57.69
2022-09-09T10:49:20.740Z,57.85
2022-09-09T10:50:19.339Z,58.01
2022-09-09T10:51:17.229Z,58.81
2022-09-09T10:52:17.241Z,57.85
2022-09-09T10:53:17.214Z,57.20
2022-09-09T10:54:17.205Z,56.24
2022-09-09T10:55:17.189Z,56.56
2022-09-09T10:56:17.175Z,58.49
2022-09-09T10:57:17.186Z,58.65
2022-09-09T10:58:17.163Z,57.20
2022-09-09T10:59:17.162Z,56.40
2022-09-09T11:00:17.132Z,57.69
2022-09-09T11:01:17.259Z,58.17
2022-09-09T11:02:17.152Z,57.04
2022-09-09T11:03:17.119Z,56.88
2022-09-09T11:04:17.133Z,57.04
2022-09-09T11:05:17.091Z,56.88
2022-09-09T11:06:17.129Z,58.01
2022-09-09T11:07:17.098Z,59.62
2022-09-09T11:08:17.133Z,57.36
2022-09-09T11:09:17.056Z,56.72
2022-09-09T11:10:17.041Z,57.04
2022-09-09T11:11:17.030Z,57.85
2022-09-09T11:12:17.041Z,58.01
2022-09-09T11:13:17.013Z,58.33
2022-09-09T11:14:16.996Z,57.85
2022-09-09T11:15:17.004Z,58.17
2022-09-09T11:16:16.994Z,57.52
2022-09-09T11:17:16.992Z,58.17
2022-09-09T11:18:16.960Z,58.81
2022-09-09T11:19:16.950Z,59.94
2022-09-09T11:20:16.940Z,58.65
2022-09-09T11:21:16.930Z,57.69
2022-09-09T11:22:17.007Z,58.01
2022-09-09T11:23:16.912Z,58.01
2022-09-09T11:24:17.601Z,58.17
2022-09-09T11:25:16.879Z,58.97
2022-09-09T11:26:16.875Z,58.81
2022-09-09T11:27:16.938Z,57.85
2022-09-09T11:28:16.854Z,58.33
2022-09-09T11:29:16.996Z,59.30
2022-09-09T11:30:27.469Z,59.14
2022-09-09T11:31:18.880Z,58.17
2022-09-09T11:32:16.836Z,58.65
2022-09-09T11:33:16.803Z,58.81
2022-09-09T11:34:16.797Z,58.65
2022-09-09T11:35:16.785Z,58.17
2022-09-09T11:36:16.771Z,60.42
2022-09-09T11:37:16.791Z,58.17
2022-09-09T11:38:16.755Z,59.62
2022-09-09T11:39:16.744Z,58.33
2022-09-09T11:40:17.774Z,58.65
2022-09-09T11:41:21.091Z,60.26
2022-09-09T11:42:18.734Z,59.62
2022-09-09T11:43:16.702Z,59.94
2022-09-09T11:44:16.693Z,60.10
2022-09-09T11:45:16.685Z,60.26
2022-09-09T11:46:16.695Z,59.94
2022-09-09T11:47:16.689Z,59.30
2022-09-09T11:48:16.650Z,63.49
2022-09-09T11:49:16.650Z,60.75
2022-09-09T11:50:16.640Z,58.65
2022-09-09T11:51:17.228Z,58.17
2022-09-09T11:52:16.690Z,59.14
2022-09-09T11:53:16.603Z,60.10
2022-09-09T11:54:16.593Z,58.49
2022-09-09T11:55:16.580Z,57.85
2022-09-09T11:56:16.573Z,59.62
2022-09-09T11:57:16.571Z,58.65
2022-09-09T11:58:16.555Z,58.01
2022-09-09T11:59:16.536Z,58.65
2022-09-09T12:00:16.536Z,57.85
2022-09-09T12:01:16.521Z,59.78
2022-09-09T12:02:16.650Z,58.01
2022-09-09T12:03:16.489Z,59.14
2022-09-09T12:04:21.294Z,59.30
2022-09-09T12:05:18.525Z,58.65
2022-09-09T12:06:16.469Z,59.46
2022-09-09T12:07:16.467Z,60.42
2022-09-09T12:08:16.453Z,59.94
2022-09-09T12:09:16.441Z,60.10
2022-09-09T12:10:16.429Z,59.46
2022-09-09T12:11:16.409Z,58.49
2022-09-09T12:12:16.459Z,59.46
2022-09-09T12:13:16.396Z,60.59
2022-09-09T12:14:16.381Z,58.97
2022-09-09T12:15:16.370Z,58.97
2022-09-09T12:16:16.426Z,59.62
2022-09-09T12:17:16.375Z,58.97
2022-09-09T12:18:16.342Z,61.23
2022-09-09T12:19:16.371Z,61.71
2022-09-09T12:20:16.336Z,59.46
2022-09-09T12:21:16.321Z,60.91
2022-09-09T12:22:16.334Z,60.10
2022-09-09T12:23:16.298Z,60.42
2022-09-09T12:24:16.289Z,60.10
2022-09-09T12:25:20.208Z,59.62
2022-09-09T12:26:17.316Z,61.07
2022-09-09T12:27:16.268Z,61.55
2022-09-09T12:28:16.255Z,60.75
2022-09-09T12:29:16.245Z,61.39
2022-09-09T12:30:16.229Z,60.42
2022-09-09T12:31:16.252Z,61.07
2022-09-09T12:32:16.228Z,60.42
2022-09-09T12:33:16.206Z,60.10
2022-09-09T12:34:16.190Z,60.91
2022-09-09T12:35:17.060Z,61.39
2022-09-09T12:36:16.172Z,61.39
2022-09-09T12:37:16.174Z,61.71
2022-09-09T12:38:16.152Z,62.36
2022-09-09T12:39:16.134Z,62.68
2022-09-09T12:40:16.184Z,62.20
2022-09-09T12:41:16.121Z,62.84
2022-09-09T12:42:16.147Z,62.68
2022-09-09T12:43:16.108Z,61.87
2022-09-09T12:44:16.094Z,62.52
2022-09-09T12:45:16.082Z,60.91
2022-09-09T12:46:16.129Z,60.42
2022-09-09T12:47:16.099Z,60.10
2022-09-09T12:48:16.049Z,60.59
2022-09-09T12:49:16.050Z,59.46
2022-09-09T12:50:16.042Z,59.78
2022-09-09T12:51:16.016Z,60.10
2022-09-09T12:52:16.038Z,59.46
2022-09-09T12:53:15.994Z,58.49
2022-09-09T12:54:15.994Z,58.97